createdAt,value
2017-11-26T00:00:17.443Z,4.9
2017-11-26T00:01:19.570Z,4.9
2017-11-26T00:02:21.784Z,4.9
2017-11-26T00:03:23.474Z,4.9
2017-11-26T00:04:25.146Z,4.9
2017-11-26T00:05:26.968Z,4.9
2017-11-26T00:06:28.597Z,4.8
2017-11-26T00:07:30.283Z,4.7
2017-11-26T00:08:32.013Z,4.7
2017-11-26T00:09:33.729Z,4.8
2017-11-26T00:10:35.480Z,4.7
2017-11-26T00:11:37.250Z,4.7
2017-11-26T00:12:39.414Z,4.7
2017-11-26T00:13:41.065Z,4.7
2017-11-26T00:14:42.699Z,4.7
2017-11-26T00:15:44.427Z,4.7
2017-11-26T00:16:46.103Z,4.8
2017-11-26T00:17:48.254Z,4.9
2017-11-26T00:18:50.378Z,5.0
2017-11-26T00:19:52.090Z,4.9
2017-11-26T00:20:53.759Z,5.0
2017-11-26T00:21:55.379Z,4.9
2017-11-26T00:22:57.067Z,4.9
2017-11-26T00:23:58.556Z,4.9
2017-11-26T00:25:00.328Z,4.9
2017-11-26T00:26:02.459Z,4.9
2017-11-26T00:27:04.222Z,4.9
2017-11-26T00:28:06.300Z,5.0
2017-11-26T00:29:08.502Z,5.0
2017-11-26T00:30:10.194Z,5.0
2017-11-26T00:31:11.913Z,5.0
2017-11-26T00:32:14.038Z,5.0
2017-11-26T00:33:15.708Z,5.1
2017-11-26T00:34:17.434Z,5.1
2017-11-26T00:35:19.181Z,5.1
2017-11-26T00:36:21.353Z,5.1
2017-11-26T00:37:22.974Z,5.1
2017-11-26T00:38:24.705Z,5.1
2017-11-26T00:39:26.401Z,5.1
2017-11-26T00:40:28.510Z,5.2
2017-11-26T00:41:30.191Z,5.2
2017-11-26T00:42:31.900Z,5.1
2017-11-26T00:43:33.674Z,5.2
2017-11-26T00:44:35.408Z,5.2
2017-11-26T00:45:37.213Z,5.3
2017-11-26T00:46:38.903Z,5.2
2017-11-26T00:47:40.601Z,5.3
2017-11-26T00:48:42.370Z,5.3
2017-11-26T00:49:44.038Z,5.3
2017-11-26T00:50:45.786Z,5.3
2017-11-26T00:51:48.071Z,5.4
2017-11-26T00:52:49.802Z,5.4
2017-11-26T00:53:51.461Z,5.3
2017-11-26T00:54:53.238Z,5.3
2017-11-26T00:55:55.473Z,5.4
2017-11-26T00:56:57.570Z,5.4
2017-11-26T00:57:59.379Z,5.4
2017-11-26T00:59:01.101Z,5.4
2017-11-26T01:00:02.876Z,5.5
2017-11-26T01:01:04.569Z,5.4
2017-11-26T01:02:06.675Z,5.4
2017-11-26T01:03:08.425Z,5.4
2017-11-26T01:04:10.569Z,5.4
2017-11-26T01:05:12.293Z,5.3
2017-11-26T01:06:14.056Z,5.3
2017-11-26T01:07:16.236Z,5.2
2017-11-26T01:08:18.389Z,5.2
2017-11-26T01:09:20.121Z,5.2
2017-11-26T01:10:22.305Z,5.2
2017-11-26T01:11:24.036Z,5.2
2017-11-26T01:12:26.190Z,5.2
2017-11-26T01:13:27.951Z,5.2
2017-11-26T01:14:29.724Z,5.1
2017-11-26T01:15:31.841Z,5.2
2017-11-26T01:16:34.043Z,5.3
2017-11-26T01:17:35.816Z,5.1
2017-11-26T01:18:38.025Z,5.2
2017-11-26T01:19:39.677Z,5.3
2017-11-26T01:20:41.862Z,5.2
2017-11-26T01:21:43.885Z,5.2
2017-11-26T01:22:46.065Z,5.2
2017-11-26T01:23:47.897Z,5.3
2017-11-26T01:24:49.529Z,5.1
2017-11-26T01:25:51.283Z,5.1
2017-11-26T01:26:52.960Z,5.1
2017-11-26T01:27:54.713Z,5.1
2017-11-26T01:28:56.425Z,5.0
2017-11-26T01:29:58.226Z,5.1
2017-11-26T01:30:59.950Z,5.1
2017-11-26T01:32:01.738Z,5.1
2017-11-26T01:33:03.545Z,5.0
2017-11-26T01:34:05.841Z,4.9
2017-11-26T01:35:07.622Z,4.9
2017-11-26T01:36:09.765Z,5.0
2017-11-26T01:37:11.881Z,5.0
2017-11-26T01:38:13.450Z,5.0
2017-11-26T01:39:15.109Z,4.9
2017-11-26T01:40:16.860Z,4.9
2017-11-26T01:41:18.917Z,4.9
2017-11-26T01:42:20.597Z,5.0
2017-11-26T01:43:22.755Z,4.9
2017-11-26T01:44:24.529Z,4.8
2017-11-26T01:45:26.272Z,4.9
2017-11-26T01:46:28.442Z,5.0
2017-11-26T01:47:30.158Z,5.0
2017-11-26T01:48:31.862Z,5.1
2017-11-26T01:49:33.631Z,4.9
2017-11-26T01:50:35.334Z,5.0
2017-11-26T01:51:37.068Z,5.0
2017-11-26T01:52:38.810Z,5.1
2017-11-26T01:53:40.423Z,5.0
2017-11-26T01:54:42.185Z,4.9
2017-11-26T01:55:43.886Z,4.9
2017-11-26T01:56:45.578Z,4.9
2017-11-26T01:57:47.377Z,5.0
2017-11-26T01:58:49.097Z,5.0
2017-11-26T01:59:51.123Z,5.0
2017-11-26T02:00:52.863Z,4.9
2017-11-26T02:01:54.898Z,4.9
2017-11-26T02:02:56.575Z,4.9
2017-11-26T02:03:58.225Z,4.9
2017-11-26T02:04:59.965Z,4.9
2017-11-26T02:06:01.664Z,4.8
2017-11-26T02:07:03.582Z,4.8
2017-11-26T02:08:05.381Z,4.7
2017-11-26T02:09:07.168Z,4.7
2017-11-26T02:10:08.892Z,4.7
2017-11-26T02:11:10.668Z,4.7
2017-11-26T02:12:12.956Z,4.7
2017-11-26T02:13:14.834Z,4.6
2017-11-26T02:14:16.552Z,4.6
2017-11-26T02:15:18.322Z,4.7
2017-11-26T02:16:20.049Z,4.7
2017-11-26T02:17:21.689Z,4.7
2017-11-26T02:18:23.438Z,4.8
2017-11-26T02:19:25.241Z,4.8
2017-11-26T02:20:26.865Z,4.9
2017-11-26T02:21:28.656Z,4.9
2017-11-26T02:22:32.108Z,4.9
2017-11-26T02:23:33.809Z,5.0
2017-11-26T02:24:35.647Z,5.1
2017-11-26T02:25:37.380Z,5.0
2017-11-26T02:26:39.551Z,5.0
2017-11-26T02:27:41.673Z,5.0
2017-11-26T02:28:43.244Z,5.1
2017-11-26T02:29:44.889Z,5.1
2017-11-26T02:30:46.624Z,5.1
2017-11-26T02:31:48.801Z,5.1
2017-11-26T02:32:50.451Z,5.1
2017-11-26T02:33:51.986Z,5.2
2017-11-26T02:34:53.959Z,5.2
2017-11-26T02:35:55.437Z,5.1
2017-11-26T02:36:56.967Z,5.1
2017-11-26T02:37:58.464Z,5.0
2017-11-26T02:38:59.991Z,5.0
2017-11-26T02:40:01.636Z,5.0
2017-11-26T02:41:03.320Z,5.1
2017-11-26T02:42:04.796Z,5.1
2017-11-26T02:43:06.807Z,5.1
2017-11-26T02:44:08.318Z,5.1
2017-11-26T02:45:10.312Z,5.0
2017-11-26T02:46:12.214Z,5.0
2017-11-26T02:47:13.650Z,4.9
2017-11-26T02:48:15.218Z,5.0
2017-11-26T02:49:17.000Z,5.0
2017-11-26T02:50:18.828Z,4.9
2017-11-26T02:51:20.340Z,5.0
2017-11-26T02:52:21.844Z,5.0
2017-11-26T02:53:23.352Z,5.0
2017-11-26T02:54:24.798Z,5.0
2017-11-26T02:55:26.743Z,5.0
2017-11-26T02:56:28.381Z,5.0
2017-11-26T02:57:29.809Z,5.1
2017-11-26T02:58:31.586Z,4.9
2017-11-26T02:59:33.121Z,4.9
2017-11-26T03:00:34.610Z,4.8
2017-11-26T03:01:36.091Z,4.7
2017-11-26T03:02:37.720Z,4.6
2017-11-26T03:03:39.435Z,4.6
2017-11-26T03:04:40.904Z,4.5
2017-11-26T03:05:42.797Z,4.5
2017-11-26T03:06:44.380Z,4.5
2017-11-26T03:07:46.215Z,4.6
2017-11-26T03:08:48.206Z,4.5
2017-11-26T03:09:49.646Z,4.4
2017-11-26T03:10:51.199Z,4.3
2017-11-26T03:11:52.649Z,4.3
2017-11-26T03:12:54.353Z,4.4
2017-11-26T03:13:56.060Z,4.4
2017-11-26T03:14:57.655Z,4.2
2017-11-26T03:15:59.540Z,4.3
2017-11-26T03:17:01.024Z,4.2
2017-11-26T03:18:02.720Z,4.3
2017-11-26T03:19:04.513Z,4.2
2017-11-26T03:20:05.909Z,4.2
2017-11-26T03:21:07.390Z,4.1
2017-11-26T03:22:08.802Z,4.1
2017-11-26T03:23:10.253Z,4.1
2017-11-26T03:24:11.778Z,4.1
2017-11-26T03:25:13.369Z,4.1
2017-11-26T03:26:14.817Z,4.1
2017-11-26T03:27:16.298Z,4.1
2017-11-26T03:28:17.922Z,4.2
2017-11-26T03:29:19.456Z,4.3
2017-11-26T03:30:21.188Z,4.3
2017-11-26T03:31:22.669Z,4.2
2017-11-26T03:32:24.152Z,4.2
2017-11-26T03:33:25.888Z,4.2
2017-11-26T03:34:27.392Z,4.2
2017-11-26T03:35:28.798Z,4.2
2017-11-26T03:36:30.387Z,4.2
2017-11-26T03:37:31.967Z,4.2
2017-11-26T03:38:33.432Z,4.3
2017-11-26T03:39:35.193Z,4.3
2017-11-26T03:40:36.828Z,4.3
2017-11-26T03:41:38.281Z,4.2
2017-11-26T03:42:39.723Z,4.1
2017-11-26T03:43:41.204Z,4.2
2017-11-26T03:44:42.686Z,4.2
2017-11-26T03:45:44.109Z,4.2
2017-11-26T03:46:45.654Z,4.2
2017-11-26T03:47:47.273Z,4.3
2017-11-26T03:48:49.037Z,4.3
2017-11-26T03:49:50.610Z,4.3
2017-11-26T03:50:52.202Z,4.2
2017-11-26T03:51:53.954Z,4.2
2017-11-26T03:52:55.412Z,4.2
2017-11-26T03:53:56.890Z,4.2
2017-11-26T03:54:58.715Z,4.2
2017-11-26T03:56:00.344Z,4.1
2017-11-26T03:57:02.045Z,4.2
2017-11-26T03:58:03.522Z,4.2
2017-11-26T03:59:05.194Z,4.2
2017-11-26T04:00:06.820Z,4.2
2017-11-26T04:01:08.587Z,4.2
2017-11-26T04:02:10.179Z,4.3
2017-11-26T04:03:11.647Z,4.2
2017-11-26T04:04:13.562Z,4.2
2017-11-26T04:05:15.226Z,4.2
2017-11-26T04:06:16.771Z,4.3
2017-11-26T04:07:18.338Z,4.2
2017-11-26T04:08:20.178Z,4.2
2017-11-26T04:09:21.657Z,4.2
2017-11-26T04:10:23.200Z,4.2
2017-11-26T04:11:24.842Z,4.2
2017-11-26T04:12:26.483Z,4.2
2017-11-26T04:13:28.012Z,4.3
2017-11-26T04:14:29.486Z,4.3
2017-11-26T04:15:31.258Z,4.2
2017-11-26T04:16:32.779Z,4.3
2017-11-26T04:17:34.258Z,4.3
2017-11-26T04:18:35.722Z,4.3
2017-11-26T04:19:37.199Z,4.3
2017-11-26T04:20:38.792Z,4.4
2017-11-26T04:21:40.404Z,4.4
2017-11-26T04:22:41.933Z,4.3
2017-11-26T04:23:43.783Z,4.5
2017-11-26T04:24:45.245Z,4.4
2017-11-26T04:25:46.680Z,4.4
2017-11-26T04:26:48.408Z,4.4
2017-11-26T04:27:49.898Z,4.4
2017-11-26T04:28:51.415Z,4.4
2017-11-26T04:29:52.965Z,4.4
2017-11-26T04:30:54.405Z,4.5
2017-11-26T04:31:55.937Z,4.5
2017-11-26T04:32:57.685Z,4.6
2017-11-26T04:33:59.109Z,4.6
2017-11-26T04:35:00.971Z,4.6
2017-11-26T04:36:02.692Z,4.6
2017-11-26T04:37:04.136Z,4.6
2017-11-26T04:38:05.601Z,4.6
2017-11-26T04:39:07.300Z,4.6
2017-11-26T04:40:08.742Z,4.7
2017-11-26T04:41:10.604Z,4.7
2017-11-26T04:42:12.433Z,4.6
2017-11-26T04:43:14.243Z,4.7
2017-11-26T04:44:15.709Z,4.7
2017-11-26T04:45:17.249Z,4.6
2017-11-26T04:46:18.726Z,4.7
2017-11-26T04:47:20.277Z,4.7
2017-11-26T04:48:22.153Z,4.6
2017-11-26T04:49:23.588Z,4.5
2017-11-26T04:50:25.057Z,4.7
2017-11-26T04:51:26.563Z,4.5
2017-11-26T04:52:28.001Z,4.5
2017-11-26T04:53:29.486Z,4.6
2017-11-26T04:54:30.930Z,4.6
2017-11-26T04:55:32.657Z,4.6
2017-11-26T04:56:34.294Z,4.6
2017-11-26T04:57:35.888Z,4.6
2017-11-26T04:58:37.429Z,4.5
2017-11-26T04:59:39.127Z,4.6
2017-11-26T05:00:40.936Z,4.7
2017-11-26T05:01:42.765Z,4.7
2017-11-26T05:02:44.538Z,4.7
2017-11-26T05:03:46.029Z,4.7
2017-11-26T05:04:47.937Z,4.7
2017-11-26T05:05:49.578Z,4.6
2017-11-26T05:06:51.073Z,4.7
2017-11-26T05:07:52.941Z,4.7
2017-11-26T05:08:54.759Z,4.8
2017-11-26T05:09:56.210Z,4.8
2017-11-26T05:10:58.102Z,4.8
2017-11-26T05:11:59.598Z,4.9
2017-11-26T05:13:01.580Z,4.8
2017-11-26T05:14:03.144Z,4.8
2017-11-26T05:15:05.083Z,4.8
2017-11-26T05:16:07.023Z,4.7
2017-11-26T05:17:08.610Z,4.8
2017-11-26T05:18:10.389Z,4.8
2017-11-26T05:19:11.972Z,4.9
2017-11-26T05:20:13.448Z,4.9
2017-11-26T05:21:14.899Z,4.8
2017-11-26T05:22:16.446Z,4.8
2017-11-26T05:23:18.287Z,4.9
2017-11-26T05:24:19.875Z,4.7
2017-11-26T05:25:21.348Z,4.7
2017-11-26T05:26:22.841Z,4.8
2017-11-26T05:27:24.415Z,4.8
2017-11-26T05:28:25.933Z,4.7
2017-11-26T05:29:27.425Z,4.7
2017-11-26T05:30:28.937Z,4.7
2017-11-26T05:31:30.359Z,4.6
2017-11-26T05:32:31.931Z,4.7
2017-11-26T05:33:33.864Z,4.7
2017-11-26T05:34:35.331Z,4.7
2017-11-26T05:35:37.238Z,4.7
2017-11-26T05:36:38.863Z,4.7
2017-11-26T05:37:40.812Z,4.7
2017-11-26T05:38:42.334Z,4.7
2017-11-26T05:39:43.796Z,4.8
2017-11-26T05:40:45.649Z,4.8
2017-11-26T05:41:47.204Z,4.8
2017-11-26T05:42:48.757Z,4.8
2017-11-26T05:43:50.370Z,4.7
2017-11-26T05:44:51.841Z,4.7
2017-11-26T05:45:53.807Z,4.7
2017-11-26T05:46:55.439Z,4.7
2017-11-26T05:47:56.892Z,4.7
2017-11-26T05:48:58.683Z,4.7
2017-11-26T05:50:00.175Z,4.7
2017-11-26T05:51:01.639Z,4.7
2017-11-26T05:52:03.224Z,4.7
2017-11-26T05:53:05.077Z,4.6
2017-11-26T05:54:06.879Z,4.6
2017-11-26T05:55:08.334Z,4.6
2017-11-26T05:56:10.091Z,4.5
2017-11-26T05:57:11.688Z,4.5
2017-11-26T05:58:13.369Z,4.5
2017-11-26T05:59:14.952Z,4.5
2017-11-26T06:00:16.368Z,4.5
2017-11-26T06:01:18.148Z,4.4
2017-11-26T06:02:19.841Z,4.5
2017-11-26T06:03:21.270Z,4.5
2017-11-26T06:04:23.330Z,4.5
2017-11-26T06:05:24.761Z,4.5
2017-11-26T06:06:26.370Z,4.6
2017-11-26T06:07:28.108Z,4.5
2017-11-26T06:08:30.021Z,4.4
2017-11-26T06:09:31.452Z,4.4
2017-11-26T06:10:32.945Z,4.4
2017-11-26T06:11:34.405Z,4.4
2017-11-26T06:12:35.845Z,4.5
2017-11-26T06:13:37.828Z,4.4
2017-11-26T06:14:39.473Z,4.4
2017-11-26T06:15:40.938Z,4.4
2017-11-26T06:16:42.665Z,4.4
2017-11-26T06:17:44.425Z,4.4
2017-11-26T06:18:45.882Z,4.4
2017-11-26T06:19:47.799Z,4.3
2017-11-26T06:20:49.409Z,4.4
2017-11-26T06:21:51.135Z,4.3
2017-11-26T06:22:52.584Z,4.4
2017-11-26T06:23:54.028Z,4.3
2017-11-26T06:24:55.912Z,4.3
2017-11-26T06:25:57.410Z,4.3
2017-11-26T06:26:59.204Z,4.3
2017-11-26T06:28:01.090Z,4.3
2017-11-26T06:29:03.133Z,4.3
2017-11-26T06:30:04.988Z,4.3
2017-11-26T06:31:06.433Z,4.3
2017-11-26T06:32:07.936Z,4.3
2017-11-26T06:33:09.394Z,4.4
2017-11-26T06:34:10.843Z,4.3
2017-11-26T06:35:12.327Z,4.4
2017-11-26T06:36:13.846Z,4.3
2017-11-26T06:37:15.731Z,4.3
2017-11-26T06:38:17.627Z,4.4
2017-11-26T06:39:19.487Z,4.3
2017-11-26T06:40:21.730Z,4.4
2017-11-26T06:41:23.412Z,4.4
2017-11-26T06:42:26.098Z,4.4
2017-11-26T06:43:27.704Z,4.4
2017-11-26T06:44:29.446Z,4.5
2017-11-26T06:45:30.883Z,4.4
2017-11-26T06:46:32.635Z,4.5
2017-11-26T06:47:34.183Z,4.4
2017-11-26T06:48:35.653Z,4.4
2017-11-26T06:49:38.186Z,4.5
2017-11-26T06:50:39.639Z,4.6
2017-11-26T06:51:41.640Z,4.5
2017-11-26T06:52:43.382Z,4.5
2017-11-26T06:53:45.143Z,4.5
2017-11-26T06:54:46.804Z,4.5
2017-11-26T06:55:48.548Z,4.6
2017-11-26T06:56:50.023Z,4.5
2017-11-26T06:57:51.527Z,4.5
2017-11-26T06:58:52.976Z,4.6
2017-11-26T06:59:54.808Z,4.6
2017-11-26T07:00:56.676Z,4.6
2017-11-26T07:01:58.496Z,4.7
2017-11-26T07:03:00.797Z,4.7
2017-11-26T07:04:03.575Z,4.7
2017-11-26T07:05:05.765Z,4.7
2017-11-26T07:06:08.585Z,4.7
2017-11-26T07:07:10.323Z,4.7
2017-11-26T07:08:11.776Z,4.8
2017-11-26T07:09:13.308Z,4.7
2017-11-26T07:10:14.891Z,4.7
2017-11-26T07:11:16.765Z,4.7
2017-11-26T07:12:18.559Z,4.7
2017-11-26T07:13:20.184Z,4.8
2017-11-26T07:14:21.948Z,4.9
2017-11-26T07:15:23.662Z,4.8
2017-11-26T07:16:25.314Z,4.9
2017-11-26T07:17:26.984Z,4.9
2017-11-26T07:18:28.846Z,4.9
2017-11-26T07:19:30.987Z,4.9
2017-11-26T07:20:32.810Z,4.9
2017-11-26T07:21:34.644Z,4.8
2017-11-26T07:22:36.432Z,4.8
2017-11-26T07:23:38.040Z,4.9
2017-11-26T07:24:39.610Z,4.9
2017-11-26T07:25:41.689Z,4.9
2017-11-26T07:26:43.482Z,4.9
2017-11-26T07:27:45.080Z,4.9
2017-11-26T07:28:46.653Z,4.9
2017-11-26T07:29:48.165Z,4.9
2017-11-26T07:30:50.063Z,4.9
2017-11-26T07:31:51.552Z,4.9
2017-11-26T07:32:53.384Z,4.9
2017-11-26T07:33:54.853Z,5.0
2017-11-26T07:34:56.446Z,4.9
2017-11-26T07:35:57.963Z,4.9
2017-11-26T07:36:59.805Z,5.0
2017-11-26T07:38:01.278Z,5.0
2017-11-26T07:39:02.898Z,5.0
2017-11-26T07:40:04.394Z,5.1
2017-11-26T07:41:06.276Z,5.1
2017-11-26T07:42:08.013Z,5.0
2017-11-26T07:43:09.891Z,5.0
2017-11-26T07:44:11.631Z,5.0
2017-11-26T07:45:13.088Z,5.0
2017-11-26T07:46:15.054Z,5.0
2017-11-26T07:47:16.709Z,5.1
2017-11-26T07:48:18.253Z,5.2
2017-11-26T07:49:19.749Z,5.2
2017-11-26T07:50:21.629Z,5.2
2017-11-26T07:51:23.600Z,5.3
2017-11-26T07:52:25.501Z,5.3
2017-11-26T07:53:27.236Z,5.3
2017-11-26T07:54:28.800Z,5.3
2017-11-26T07:55:30.232Z,5.4
2017-11-26T07:56:31.897Z,5.4
2017-11-26T07:57:33.709Z,5.4
2017-11-26T07:58:35.244Z,5.4
2017-11-26T07:59:36.674Z,5.4
2017-11-26T08:00:38.758Z,5.5
2017-11-26T08:01:40.234Z,5.5
2017-11-26T08:02:41.675Z,5.5
2017-11-26T08:03:43.674Z,5.6
2017-11-26T08:04:45.584Z,5.6
2017-11-26T08:05:47.089Z,5.7
2017-11-26T08:06:48.512Z,5.7
2017-11-26T08:07:49.978Z,5.6
2017-11-26T08:08:51.770Z,5.7
2017-11-26T08:09:53.789Z,5.7
2017-11-26T08:10:55.478Z,5.7
2017-11-26T08:11:57.369Z,5.6
2017-11-26T08:12:59.313Z,5.7
2017-11-26T08:14:00.749Z,5.6
2017-11-26T08:15:02.288Z,5.6
2017-11-26T08:16:03.802Z,5.6
2017-11-26T08:17:05.613Z,5.6
2017-11-26T08:18:07.256Z,5.5
2017-11-26T08:19:09.077Z,5.5
2017-11-26T08:20:10.705Z,5.5
2017-11-26T08:21:12.217Z,5.5
2017-11-26T08:22:13.664Z,5.5
2017-11-26T08:23:15.223Z,5.6
2017-11-26T08:24:17.165Z,5.4
2017-11-26T08:25:19.115Z,5.6
2017-11-26T08:26:20.803Z,5.7
2017-11-26T08:27:22.714Z,5.6
2017-11-26T08:28:24.249Z,5.5
2017-11-26T08:29:25.815Z,5.6
2017-11-26T08:30:27.594Z,5.6
2017-11-26T08:31:29.482Z,5.7
2017-11-26T08:32:31.763Z,5.7
2017-11-26T08:33:33.233Z,5.7
2017-11-26T08:34:34.914Z,5.6
2017-11-26T08:35:36.446Z,5.6
2017-11-26T08:36:38.010Z,5.5
2017-11-26T08:37:39.521Z,5.7
2017-11-26T08:38:41.267Z,5.7
2017-11-26T08:39:43.059Z,5.8
2017-11-26T08:40:44.829Z,5.7
2017-11-26T08:41:46.299Z,5.7
2017-11-26T08:42:48.447Z,5.6
2017-11-26T08:43:49.951Z,5.7
2017-11-26T08:44:51.714Z,5.7
2017-11-26T08:45:53.528Z,5.8
2017-11-26T08:46:54.999Z,5.7
2017-11-26T08:47:56.491Z,5.8
2017-11-26T08:48:58.180Z,5.7
2017-11-26T08:50:00.354Z,5.7
2017-11-26T08:51:02.526Z,5.8
2017-11-26T08:52:04.697Z,5.8
2017-11-26T08:53:06.410Z,5.8
2017-11-26T08:54:08.086Z,5.8
2017-11-26T08:55:09.839Z,5.8
2017-11-26T08:56:11.670Z,5.7
2017-11-26T08:57:13.436Z,5.7
2017-11-26T08:58:15.565Z,5.7
2017-11-26T08:59:17.362Z,5.8
2017-11-26T09:00:19.120Z,5.6
2017-11-26T09:01:20.681Z,5.7
2017-11-26T09:02:22.375Z,5.7
2017-11-26T09:03:24.030Z,5.8
2017-11-26T09:04:25.882Z,5.7
2017-11-26T09:05:27.402Z,5.7
2017-11-26T09:06:28.975Z,5.7
2017-11-26T09:07:30.642Z,5.8
2017-11-26T09:08:32.436Z,5.8
2017-11-26T09:09:34.234Z,5.8
2017-11-26T09:10:35.897Z,5.8
2017-11-26T09:11:37.446Z,5.7
2017-11-26T09:12:38.993Z,5.6
2017-11-26T09:13:40.479Z,5.8
2017-11-26T09:14:41.968Z,5.8
2017-11-26T09:15:43.471Z,5.8
2017-11-26T09:16:44.965Z,5.7
2017-11-26T09:17:46.738Z,5.8
2017-11-26T09:18:48.831Z,5.7
2017-11-26T09:19:50.534Z,5.9
2017-11-26T09:20:52.004Z,5.9
2017-11-26T09:21:53.509Z,5.9
2017-11-26T09:22:54.961Z,5.9
2017-11-26T09:23:56.754Z,5.9
2017-11-26T09:24:58.307Z,6.1
2017-11-26T09:25:59.974Z,6.1
2017-11-26T09:27:01.711Z,6.2
2017-11-26T09:28:03.856Z,6.3
2017-11-26T09:29:05.599Z,6.3
2017-11-26T09:30:07.063Z,6.4
2017-11-26T09:31:09.160Z,6.4
2017-11-26T09:32:11.099Z,6.4
2017-11-26T09:33:12.706Z,6.4
2017-11-26T09:34:14.829Z,6.5
2017-11-26T09:35:16.275Z,6.6
2017-11-26T09:36:18.113Z,6.7
2017-11-26T09:37:19.944Z,7.0
2017-11-26T09:38:21.656Z,7.6
2017-11-26T09:39:23.349Z,8.0
2017-11-26T09:40:25.505Z,7.9
2017-11-26T09:41:27.040Z,7.9
2017-11-26T09:42:28.515Z,7.9
2017-11-26T09:43:30.046Z,8.2
2017-11-26T09:44:31.657Z,8.2
2017-11-26T09:45:33.427Z,8.0
2017-11-26T09:46:34.983Z,7.9
2017-11-26T09:47:36.744Z,8.0
2017-11-26T09:48:38.276Z,7.9
2017-11-26T09:49:39.770Z,7.9
2017-11-26T09:50:41.254Z,7.8
2017-11-26T09:51:43.066Z,7.7
2017-11-26T09:52:44.837Z,7.5
2017-11-26T09:53:46.482Z,7.5
2017-11-26T09:54:48.028Z,7.5
2017-11-26T09:55:49.935Z,7.4
2017-11-26T09:56:51.827Z,7.3
2017-11-26T09:57:54.089Z,7.3
2017-11-26T09:58:55.729Z,7.3
2017-11-26T09:59:57.252Z,7.3
2017-11-26T10:00:59.672Z,7.3
2017-11-26T10:02:01.069Z,7.2
2017-11-26T10:03:03.895Z,7.2
2017-11-26T10:04:05.387Z,7.1
2017-11-26T10:05:07.279Z,7.2
2017-11-26T10:06:08.744Z,7.1
2017-11-26T10:07:10.359Z,7.2
2017-11-26T10:08:12.325Z,7.3
2017-11-26T10:09:14.233Z,7.3
2017-11-26T10:10:15.698Z,7.1
2017-11-26T10:11:17.195Z,7.2
2017-11-26T10:12:19.043Z,7.2
2017-11-26T10:13:20.503Z,7.2
2017-11-26T10:14:22.486Z,7.1
2017-11-26T10:15:24.186Z,7.1
2017-11-26T10:16:26.411Z,7.0
2017-11-26T10:17:28.596Z,6.9
2017-11-26T10:18:30.176Z,6.9
2017-11-26T10:19:31.673Z,7.0
2017-11-26T10:20:33.557Z,6.8
2017-11-26T10:21:35.154Z,6.9
2017-11-26T10:22:37.004Z,6.9
2017-11-26T10:23:38.863Z,6.8
2017-11-26T10:24:40.363Z,6.9
2017-11-26T10:25:42.802Z,6.9
2017-11-26T10:26:44.569Z,6.9
2017-11-26T10:27:46.107Z,7.0
2017-11-26T10:28:47.618Z,7.1
2017-11-26T10:29:49.860Z,7.1
2017-11-26T10:30:51.908Z,7.2
2017-11-26T10:31:53.377Z,7.2
2017-11-26T10:32:54.899Z,7.3
2017-11-26T10:33:56.319Z,7.3
2017-11-26T10:34:58.100Z,7.3
2017-11-26T10:35:59.834Z,7.1
2017-11-26T10:37:01.585Z,7.3
2017-11-26T10:38:03.468Z,7.3
2017-11-26T10:39:05.007Z,7.4
2017-11-26T10:40:06.514Z,7.3
2017-11-26T10:41:08.065Z,7.3
2017-11-26T10:42:10.204Z,7.3
2017-11-26T10:43:11.650Z,7.3
2017-11-26T10:44:13.310Z,7.2
2017-11-26T10:45:14.996Z,7.3
2017-11-26T10:46:16.717Z,7.4
2017-11-26T10:47:19.011Z,7.5
2017-11-26T10:48:20.973Z,7.6
2017-11-26T10:49:22.907Z,7.6
2017-11-26T10:50:24.864Z,7.6
2017-11-26T10:51:27.470Z,7.6
2017-11-26T10:52:29.560Z,7.6
2017-11-26T10:53:30.996Z,7.5
2017-11-26T10:54:32.658Z,7.6
2017-11-26T10:55:34.420Z,7.5
2017-11-26T10:56:36.067Z,7.7
2017-11-26T10:57:37.724Z,7.9
2017-11-26T10:58:39.361Z,8.3
2017-11-26T10:59:41.007Z,8.8
2017-11-26T11:00:42.905Z,8.5
2017-11-26T11:01:44.748Z,8.5
2017-11-26T11:02:46.879Z,8.3
2017-11-26T11:03:48.565Z,8.2
2017-11-26T11:04:50.033Z,8.2
2017-11-26T11:05:51.517Z,8.0
2017-11-26T11:06:53.032Z,7.9
2017-11-26T11:07:55.797Z,7.8
2017-11-26T11:08:57.644Z,7.7
2017-11-26T11:10:00.408Z,7.8
2017-11-26T11:11:02.202Z,7.8
2017-11-26T11:12:03.902Z,7.7
2017-11-26T11:13:06.037Z,7.7
2017-11-26T11:14:07.562Z,7.8
2017-11-26T11:15:09.610Z,7.8
2017-11-26T11:16:11.704Z,7.9
2017-11-26T11:17:13.545Z,7.9
2017-11-26T11:18:15.231Z,7.9
2017-11-26T11:19:17.502Z,8.0
2017-11-26T11:20:18.996Z,8.1
2017-11-26T11:21:21.156Z,8.3
2017-11-26T11:22:22.636Z,8.4
2017-11-26T11:23:24.066Z,8.4
2017-11-26T11:24:25.548Z,8.6
2017-11-26T11:25:27.843Z,8.7
2017-11-26T11:26:29.509Z,8.5
2017-11-26T11:27:31.663Z,8.5
2017-11-26T11:28:33.258Z,8.3
2017-11-26T11:29:35.228Z,8.5
2017-11-26T11:30:37.141Z,8.4
2017-11-26T11:31:38.918Z,8.7
2017-11-26T11:32:41.578Z,9.1
2017-11-26T11:33:43.625Z,9.3
2017-11-26T11:34:45.459Z,9.4
2017-11-26T11:35:47.261Z,9.2
2017-11-26T11:36:48.970Z,9.5
2017-11-26T11:37:51.723Z,9.3
2017-11-26T11:38:53.537Z,9.3
2017-11-26T11:39:55.002Z,9.1
2017-11-26T11:40:56.529Z,9.2
2017-11-26T11:41:58.182Z,9.1
2017-11-26T11:42:59.721Z,9.0
2017-11-26T11:44:01.183Z,8.8
2017-11-26T11:45:02.813Z,8.8
2017-11-26T11:46:05.398Z,8.8
2017-11-26T11:47:07.083Z,8.8
2017-11-26T11:48:08.969Z,8.8
2017-11-26T11:49:10.602Z,8.8
2017-11-26T11:50:12.436Z,8.7
2017-11-26T11:51:15.240Z,8.5
2017-11-26T11:52:16.928Z,8.6
2017-11-26T11:53:18.386Z,8.7
2017-11-26T11:54:19.986Z,8.7
2017-11-26T11:55:21.501Z,8.7
2017-11-26T11:56:23.324Z,8.7
2017-11-26T11:57:25.553Z,8.8
2017-11-26T11:58:27.636Z,8.9
2017-11-26T11:59:29.505Z,8.8
2017-11-26T12:00:31.006Z,8.7
2017-11-26T12:01:32.918Z,8.7
2017-11-26T12:02:34.885Z,8.7
2017-11-26T12:03:36.547Z,8.7
2017-11-26T12:04:38.781Z,8.7
2017-11-26T12:05:40.563Z,8.7
2017-11-26T12:06:42.374Z,8.6
2017-11-26T12:07:44.192Z,8.3
2017-11-26T12:08:45.720Z,8.4
2017-11-26T12:09:47.917Z,8.2
2017-11-26T12:10:49.968Z,8.0
2017-11-26T12:11:51.752Z,8.0
2017-11-26T12:12:53.310Z,7.9
2017-11-26T12:13:55.176Z,7.9
2017-11-26T12:14:56.697Z,7.8
2017-11-26T12:15:58.465Z,7.9
2017-11-26T12:17:00.070Z,7.9
2017-11-26T12:18:02.233Z,7.8
2017-11-26T12:19:03.925Z,7.8
2017-11-26T12:20:05.766Z,7.7
2017-11-26T12:21:07.289Z,7.7
2017-11-26T12:22:08.890Z,7.5
2017-11-26T12:23:10.859Z,7.5
2017-11-26T12:24:12.340Z,7.5
2017-11-26T12:25:14.236Z,7.4
2017-11-26T12:26:16.200Z,7.5
2017-11-26T12:27:18.120Z,7.5
2017-11-26T12:28:19.591Z,7.3
2017-11-26T12:29:20.998Z,7.3
2017-11-26T12:30:22.915Z,7.5
2017-11-26T12:31:24.650Z,7.5
2017-11-26T12:32:26.095Z,7.3
2017-11-26T12:33:27.557Z,7.3
2017-11-26T12:34:29.024Z,7.3
2017-11-26T12:35:30.458Z,7.4
2017-11-26T12:36:31.845Z,7.3
2017-11-26T12:37:34.550Z,7.3
2017-11-26T12:38:36.244Z,7.3
2017-11-26T12:39:37.689Z,7.4
2017-11-26T12:40:39.436Z,7.5
2017-11-26T12:41:40.927Z,7.5
2017-11-26T12:42:42.417Z,7.6
2017-11-26T12:43:44.520Z,7.4
2017-11-26T12:44:46.025Z,7.6
2017-11-26T12:45:47.489Z,7.5
2017-11-26T12:46:49.119Z,7.5
2017-11-26T12:47:51.096Z,7.4
2017-11-26T12:48:52.998Z,7.5
2017-11-26T12:49:54.878Z,7.5
2017-11-26T12:50:56.624Z,7.5
2017-11-26T12:51:58.656Z,7.6
2017-11-26T12:53:00.365Z,7.5
2017-11-26T12:54:01.854Z,7.5
2017-11-26T12:55:03.707Z,7.6
2017-11-26T12:56:06.292Z,7.6
2017-11-26T12:57:08.021Z,7.5
2017-11-26T12:58:10.046Z,7.5
2017-11-26T12:59:11.830Z,7.3
2017-11-26T13:00:13.949Z,7.4
2017-11-26T13:01:15.481Z,7.4
2017-11-26T13:02:17.560Z,7.4
2017-11-26T13:03:19.340Z,7.5
2017-11-26T13:04:21.502Z,7.5
2017-11-26T13:05:23.574Z,7.6
2017-11-26T13:06:25.099Z,7.5
2017-11-26T13:07:27.169Z,7.4
2017-11-26T13:08:29.070Z,7.4
2017-11-26T13:09:30.984Z,7.5
2017-11-26T13:10:33.514Z,7.4
2017-11-26T13:11:35.160Z,7.3
2017-11-26T13:12:37.014Z,7.3
2017-11-26T13:13:38.796Z,7.3
2017-11-26T13:14:40.428Z,7.4
2017-11-26T13:15:42.069Z,7.4
2017-11-26T13:16:44.246Z,7.6
2017-11-26T13:17:45.940Z,7.4
2017-11-26T13:18:48.057Z,7.4
2017-11-26T13:19:51.009Z,7.4
2017-11-26T13:20:52.485Z,7.3
2017-11-26T13:21:54.638Z,7.3
2017-11-26T13:22:56.534Z,7.3
2017-11-26T13:23:58.879Z,7.3
2017-11-26T13:25:01.433Z,7.2
2017-11-26T13:26:03.225Z,7.4
2017-11-26T13:27:05.113Z,7.3
2017-11-26T13:28:06.926Z,7.3
2017-11-26T13:29:08.507Z,7.3
2017-11-26T13:30:10.350Z,7.3
2017-11-26T13:31:12.170Z,7.5
2017-11-26T13:32:14.679Z,7.5
2017-11-26T13:33:16.490Z,7.5
2017-11-26T13:34:18.184Z,7.5
2017-11-26T13:35:20.282Z,7.6
2017-11-26T13:36:22.148Z,7.6
2017-11-26T13:37:23.988Z,7.5
2017-11-26T13:38:25.764Z,7.6
2017-11-26T13:39:27.477Z,7.7
2017-11-26T13:40:30.379Z,7.7
2017-11-26T13:41:32.417Z,7.6
2017-11-26T13:42:33.906Z,7.7
2017-11-26T13:43:36.189Z,7.8
2017-11-26T13:44:38.363Z,7.8
2017-11-26T13:45:39.838Z,7.9
2017-11-26T13:46:42.231Z,7.9
2017-11-26T13:47:43.707Z,8.0
2017-11-26T13:48:45.987Z,8.0
2017-11-26T13:49:47.424Z,7.9
2017-11-26T13:50:49.078Z,7.7
2017-11-26T13:51:50.597Z,7.7
2017-11-26T13:52:52.063Z,7.7
2017-11-26T13:53:54.176Z,7.7
2017-11-26T13:54:56.055Z,7.7
2017-11-26T13:55:57.830Z,7.7
2017-11-26T13:56:59.705Z,7.7
2017-11-26T13:58:01.401Z,7.7
2017-11-26T13:59:03.250Z,7.7
2017-11-26T14:00:05.231Z,7.7
2017-11-26T14:01:06.971Z,7.7
2017-11-26T14:02:08.696Z,7.6
2017-11-26T14:03:10.542Z,7.5
2017-11-26T14:04:12.658Z,7.6
2017-11-26T14:05:14.074Z,7.5
2017-11-26T14:06:15.576Z,7.5
2017-11-26T14:07:17.441Z,7.6
2017-11-26T14:08:19.226Z,7.5
2017-11-26T14:09:21.283Z,7.3
2017-11-26T14:10:23.105Z,7.4